Etusivu
METAR-TAF:

METAR-TAF

Lentoasemat :

Monastir, Tunisia

Leveyspiiri: 35-46N, Pituuspiiri: 010-45E, korkeus merenpinnasta: 2 m

Tämänhetkinen sää

Tämä raportti tehtiin 23 minuuttia sitten, kello 10.30 UTC
Tuuli 10 kn etelästä
Lämpötila 20°C
Kosteus 56%
Ilmanpaine 1020 hPa
Näkyvyys: 8000 m

METAR: DTMB 291030Z 19010KT 8000 NSC 20/11 Q1020

Aika: 11:53 (10:53 UTC)

Sääennuste

Tämä raportti tehtiin 5 tuntia ja 53 minuuttia sitten, kello 05.00 UTC
Ennuste voimassa 29. päivästä klo 06 UTC - 01. päivään klo 06 UTC
Tuuli 6 kn lännestä/lounaasta
Näkyvyys: 8000 m
Todennäköisyys 30%
29. päivästä klo 06 UTC - 29. päivään klo 08 UTC
Näkyvyys: 4000 m
utua
Tulossa
29. päivästä klo 10 UTC - 29. päivään klo 12 UTC
Tuuli 12 kn etelästä
Tulossa
29. päivästä klo 20 UTC - 29. päivään klo 22 UTC
Tuuli 4 kn eri suunnista

TAF: DTMB 290500Z 2906/0106 25006KT 8000 NSC PROB30 2906/2908 4000 BR BECMG 2910/2912 19012KT BECMG 2920/2922 VRB04KT

Säähavainnot ja -ennusteet yli 4000 lentoasemalta (METAR- ja TAF-raportit).

Käytössä olevat sääasemat on merkitty karttaan keltaisilla ja punaisilla pisteillä.

Aseta hiiri pisteen päälle nähdäksesi sääaseman nimen.

Klikkaa sitten nähdäksesi säähavainnot ja -ennusteet.

Kartan vaihtaminen: klikkaa mustalla rastilla varustettuja vihreitä pisteitä, niin voit zoomata sisään; viivalla varustettua vihreää pistettä, niin voit zoomata ulos tai vihreitä nuolia, niin pääset viereisille kartoille.


METAR-TAF: